Baileyville, IL

05:21 AM CDT del 01 Ottobre 2016 (GMT -0500)
Albertus | | Change Station

Alt. 860 ft 42.25 °N, 89.58 °W | Updated 6 minutes ago

Overcast
Coperto
58 °F
Sembra 58 °F
N
6
Vento Variabile Vento da NNE

Oggi
Massima -- | Minima -- °F
--% Possibilità di precip.
Ieri
Massima -- | Minima -- °F
Precip. -- in
Pressione 30.07 in
Visibilità 7.0 miglia
Nuvole Coperto 400 ft
Punto di rugiada 57 °F
Umidità 97%
Piovosità 0.09 in
Spessore del manto nevoso Non disponibile.
6:55 AM 6:38 PM
Luna nuova, 0% visible
METAR KFEP 011015Z AUTO 03005KT 7SM OVC004 15/14 A3007 RMK AO2 T01450141
Pressione 30.07 in
Visibilità 7.0 miglia
Nuvole Coperto 400 ft
Punto di rugiada 57 °F
Umidità 97%
Piovosità 0.09 in
Spessore del manto nevoso Non disponibile.
6:55 AM 6:38 PM
Luna nuova, 0% visible
METAR KFEP 011015Z AUTO 03005KT 7SM OVC004 15/14 A3007 RMK AO2 T01450141

10-Day Weather Forecast

Almanac

Astronomia

Oct. 01, 2016 Alba Tramonto
Ora attuale
Crepuscolo civile
Crepuscolo nautico
Crepuscolo astronomico
Luna
Estensione della luce visibile
Lunghezza del giorno
Tomorrow will be .
, % of the Moon is Illuminated

Gli estremi di oggi

State Highs State Lows

Community

WunderPhotos

Upload Photos

1,942,908 foto caricate!

WunderBlog® & News

Nearby

Qualità dell'aria

  Qualità dell'aria Indice AQ Inquinante
Not available.

Profondità neve

Stazione Profondità Altitudine

Attività sismica

Città  Distanza Mag. Data & Ora
Minimo Magnitudo Mostrato è 2.5.

Temperature delle acque costiere

Località Temperatura

Stations

Stazioni meteo nelle vicinanze

Ubicazione della stazione Temp. Raffreddamento del vento Punto di rugiada Umidità Vento Precip. Alt. Aggiornato Tipo
                   

Watches & Warnings

There are currently no watches in effect.